createdAt,value
2023-01-29T00:00:58.887Z,1023.6
2023-01-29T00:07:05.286Z,1023.6
2023-01-29T00:13:11.070Z,1023.6
2023-01-29T00:19:17.040Z,1023.6
2023-01-29T00:25:23.008Z,1023.7
2023-01-29T00:31:28.969Z,1023.6
2023-01-29T00:37:35.399Z,1023.8
2023-01-29T00:43:41.579Z,1023.8
2023-01-29T00:49:47.138Z,1023.8
2023-01-29T00:55:53.531Z,1023.8
2023-01-29T01:02:00.255Z,1023.8
2023-01-29T01:08:06.515Z,1023.9
2023-01-29T01:14:12.794Z,1023.7
2023-01-29T01:20:19.326Z,1023.8
2023-01-29T01:26:25.491Z,1023.9
2023-01-29T01:32:31.954Z,1023.9
2023-01-29T01:38:38.359Z,1023.8
2023-01-29T01:44:44.253Z,1023.9
2023-01-29T01:50:50.485Z,1023.9
2023-01-29T01:56:56.618Z,1023.8
2023-01-29T02:03:02.809Z,1023.9
2023-01-29T02:09:09.218Z,1023.9
2023-01-29T02:15:15.170Z,1024
2023-01-29T02:21:20.555Z,1024
2023-01-29T02:27:26.530Z,1024
2023-01-29T02:33:32.499Z,1024
2023-01-29T02:39:38.691Z,1023.9
2023-01-29T02:45:44.561Z,1023.8
2023-01-29T02:51:50.650Z,1023.7
2023-01-29T02:57:56.642Z,1023.7
2023-01-29T03:04:02.621Z,1023.7
2023-01-29T03:10:09.210Z,1023.7
2023-01-29T03:16:15.313Z,1023.7
2023-01-29T03:22:21.361Z,1023.7
2023-01-29T03:28:27.163Z,1023.8
2023-01-29T03:34:33.363Z,1023.8
2023-01-29T03:40:38.804Z,1023.9
2023-01-29T03:46:45.297Z,1023.9
2023-01-29T03:52:51.488Z,1023.8
2023-01-29T03:58:57.453Z,1023.7
2023-01-29T04:05:03.653Z,1023.5
2023-01-29T04:11:10.045Z,1023.5
2023-01-29T04:17:16.011Z,1023.4
2023-01-29T04:23:22.220Z,1023.4
2023-01-29T04:29:31.368Z,1023.4
2023-01-29T04:35:37.283Z,1023.4
2023-01-29T04:41:43.455Z,1023.4
2023-01-29T04:47:49.422Z,1023.5
2023-01-29T04:53:55.279Z,1023.6
2023-01-29T05:00:01.594Z,1023.5
2023-01-29T05:06:07.763Z,1023.4
2023-01-29T05:12:14.033Z,1023.5
2023-01-29T05:18:19.601Z,1023.6
2023-01-29T05:24:25.683Z,1023.6
2023-01-29T05:30:31.804Z,1023.7
2023-01-29T05:36:37.970Z,1023.8
2023-01-29T05:42:43.564Z,1023.9
2023-01-29T05:48:49.747Z,1024
2023-01-29T05:54:55.571Z,1023.9
2023-01-29T06:01:01.290Z,1023.9
2023-01-29T06:07:07.325Z,1023.9
2023-01-29T06:13:13.450Z,1023.9
2023-01-29T06:19:19.643Z,1023.9
2023-01-29T06:25:25.410Z,1023.8
2023-01-29T06:31:41.383Z,1023.9
2023-01-29T06:37:47.650Z,1023.9
2023-01-29T06:43:53.810Z,1023.9
2023-01-29T06:50:00.241Z,1023.9
2023-01-29T06:56:06.609Z,1024.1
2023-01-29T07:02:12.601Z,1024
2023-01-29T07:08:18.341Z,1023.9
2023-01-29T07:14:24.330Z,1024
2023-01-29T07:20:30.324Z,1023.9
2023-01-29T07:26:36.494Z,1023.8
2023-01-29T07:32:43.099Z,1023.7
2023-01-29T07:38:48.760Z,1023.7
2023-01-29T07:44:54.641Z,1023.7
2023-01-29T07:51:01.014Z,1023.7
2023-01-29T07:57:06.813Z,1023.6
2023-01-29T08:03:13.005Z,1023.7
2023-01-29T08:09:19.172Z,1023.6
2023-01-29T08:15:25.181Z,1023.5
2023-01-29T08:21:31.556Z,1023.6
2023-01-29T08:27:37.329Z,1023.6
2023-01-29T08:33:43.540Z,1023.7
2023-01-29T08:39:49.509Z,1023.6
2023-01-29T08:45:55.937Z,1023.8
2023-01-29T08:52:04.931Z,1023.9
2023-01-29T08:58:11.147Z,1024
2023-01-29T09:04:17.122Z,1024
2023-01-29T09:10:22.899Z,1024.1
2023-01-29T09:16:29.083Z,1024.2
2023-01-29T09:22:35.242Z,1024.3
2023-01-29T09:28:41.849Z,1024.3
2023-01-29T09:34:47.214Z,1024.4
2023-01-29T09:40:53.419Z,1024.4
2023-01-29T09:46:59.836Z,1024.5
2023-01-29T09:53:05.962Z,1024.6
2023-01-29T09:59:11.959Z,1024.5
2023-01-29T10:05:19.558Z,1024.4
2023-01-29T10:11:25.774Z,1024.4
2023-01-29T10:17:31.530Z,1024.4
2023-01-29T10:23:37.924Z,1024.3
2023-01-29T10:29:44.003Z,1024.2
2023-01-29T10:35:49.707Z,1024.3
2023-01-29T10:41:56.102Z,1024.2
2023-01-29T10:48:02.475Z,1024.2
2023-01-29T10:54:08.458Z,1024.2
2023-01-29T11:00:14.449Z,1024.1
2023-01-29T11:06:21.015Z,1024.2
2023-01-29T11:12:27.291Z,1024.1
2023-01-29T11:18:33.619Z,1024
2023-01-29T11:24:40.204Z,1023.9
2023-01-29T11:30:46.631Z,1023.9
2023-01-29T11:36:52.982Z,1023.8
2023-01-29T11:42:59.166Z,1023.8
2023-01-29T11:49:20.793Z,1023.8
2023-01-29T11:55:27.502Z,1023.6
2023-01-29T12:01:52.603Z,1023.2
2023-01-29T12:07:59.374Z,1023
2023-01-29T12:14:05.531Z,1022.9
2023-01-29T12:20:11.926Z,1022.9
2023-01-29T12:26:18.777Z,1023
2023-01-29T12:32:24.893Z,1023
2023-01-29T12:38:30.894Z,1023.2
2023-01-29T12:44:37.493Z,1023.1
2023-01-29T12:50:43.878Z,1023
2023-01-29T12:56:50.287Z,1022.9
2023-01-29T13:02:56.516Z,1022.8
2023-01-29T13:09:02.845Z,1022.7
2023-01-29T13:15:09.237Z,1022.6
2023-01-29T13:21:15.213Z,1022.5
2023-01-29T13:27:21.621Z,1022.4
2023-01-29T13:33:27.606Z,1022.4
2023-01-29T13:39:34.069Z,1022.3
2023-01-29T13:45:40.191Z,1022.3
2023-01-29T13:51:46.385Z,1022.3
2023-01-29T13:57:56.092Z,1022.2
2023-01-29T14:04:06.717Z,1022.2
2023-01-29T14:10:15.775Z,1022.2
2023-01-29T14:16:22.187Z,1022
2023-01-29T14:22:28.369Z,1022
2023-01-29T14:28:33.924Z,1022
2023-01-29T14:34:40.289Z,1022
2023-01-29T14:40:46.707Z,1022.1
2023-01-29T14:46:53.091Z,1022.2
2023-01-29T14:52:58.876Z,1022.3
2023-01-29T14:59:05.445Z,1022.3
2023-01-29T15:05:11.251Z,1022.2
2023-01-29T15:11:17.214Z,1022.1
2023-01-29T15:17:23.807Z,1022.1
2023-01-29T15:23:29.598Z,1022
2023-01-29T15:29:35.764Z,1022.2
2023-01-29T15:35:42.165Z,1022.2
2023-01-29T15:41:47.731Z,1022.2
2023-01-29T15:47:53.729Z,1022.2
2023-01-29T15:54:00.005Z,1022.3
2023-01-29T16:00:06.294Z,1022.3
2023-01-29T16:06:12.705Z,1022.4
2023-01-29T16:12:18.926Z,1022.3
2023-01-29T16:18:25.058Z,1022.3
2023-01-29T16:24:31.279Z,1022.4
2023-01-29T16:30:37.663Z,1022.4
2023-01-29T16:36:43.628Z,1022.5
2023-01-29T16:42:49.802Z,1022.6
2023-01-29T16:48:56.212Z,1022.6
2023-01-29T16:55:02.378Z,1022.7
2023-01-29T17:01:08.380Z,1022.8
2023-01-29T17:07:14.739Z,1022.8
2023-01-29T17:13:20.745Z,1022.8
2023-01-29T17:19:26.939Z,1022.8
2023-01-29T17:25:33.926Z,1022.9
2023-01-29T17:31:40.335Z,1022.9
2023-01-29T17:37:46.708Z,1022.8
2023-01-29T17:43:53.089Z,1022.8
2023-01-29T17:49:59.292Z,1022.9
2023-01-29T17:56:05.282Z,1022.8
2023-01-29T18:02:30.593Z,1022.9
2023-01-29T18:08:36.912Z,1022.8
2023-01-29T18:14:43.287Z,1022.8
2023-01-29T18:20:49.456Z,1022.7
2023-01-29T18:26:56.293Z,1022.7
2023-01-29T18:33:02.443Z,1022.7
2023-01-29T18:39:08.445Z,1022.6
2023-01-29T18:45:14.457Z,1022.6
2023-01-29T18:51:21.023Z,1022.6
2023-01-29T18:58:36.351Z,1022.7
2023-01-29T19:04:43.012Z,1022.6
2023-01-29T19:10:49.419Z,1022.7
2023-01-29T19:16:55.512Z,1022.7
2023-01-29T19:23:01.573Z,1022.6
2023-01-29T19:29:11.247Z,1022.6
2023-01-29T19:35:18.338Z,1022.5
2023-01-29T19:41:25.052Z,1022.5
2023-01-29T19:47:31.421Z,1022.6
2023-01-29T19:53:37.492Z,1022.5
2023-01-29T19:59:46.032Z,1022.4
2023-01-29T20:05:52.262Z,1022.4
2023-01-29T20:11:58.445Z,1022.4
2023-01-29T20:18:04.621Z,1022.3
2023-01-29T20:24:11.005Z,1022.3
2023-01-29T20:30:17.877Z,1022.3
2023-01-29T20:36:24.406Z,1022.3
2023-01-29T20:42:30.799Z,1022.3
2023-01-29T20:48:36.695Z,1022.3
2023-01-29T20:54:43.373Z,1022.2
2023-01-29T21:00:49.852Z,1022.1
2023-01-29T21:06:55.772Z,1022
2023-01-29T21:13:01.324Z,1022
2023-01-29T21:19:07.729Z,1022
2023-01-29T21:25:13.907Z,1022
2023-01-29T21:31:20.334Z,1022
2023-01-29T21:37:25.997Z,1022.1
2023-01-29T21:43:32.240Z,1022.1
2023-01-29T21:49:38.843Z,1022
2023-01-29T21:55:45.019Z,1022.1
2023-01-29T22:01:51.038Z,1022
2023-01-29T22:07:57.415Z,1021.9
2023-01-29T22:14:03.477Z,1021.9
2023-01-29T22:20:09.562Z,1021.9
2023-01-29T22:26:15.985Z,1021.9
2023-01-29T22:32:21.733Z,1021.8
2023-01-29T22:38:27.929Z,1021.7
2023-01-29T22:44:34.723Z,1021.6
2023-01-29T22:50:40.761Z,1021.5
2023-01-29T22:56:46.960Z,1021.4
2023-01-29T23:02:53.073Z,1021.3
2023-01-29T23:08:59.053Z,1021.2
2023-01-29T23:15:05.137Z,1021.1
2023-01-29T23:21:11.234Z,1021
2023-01-29T23:27:17.010Z,1021
2023-01-29T23:33:23.040Z,1020.9
2023-01-29T23:39:29.162Z,1020.9
2023-01-29T23:45:35.582Z,1020.8
2023-01-29T23:51:41.537Z,1020.8
2023-01-29T23:57:47.103Z,1020.8
